Time;durP1;ratioP1;P1;durP2;ratioP2;P2;SDS_P1;SDS_P2;PMS_P1;PMS_P2;Temp;Humidity;BMP_temperature;BMP_pressure;BME280_temperature;BME280_humidity;BME280_pressure;Samples;Min_cycle;Max_cycle;Signal;HPM_P1;HPM_P2
2023/01/05 00:01:40;;;;;;;17.98;2.85;;;9.20;99.90;;;;;;5125380;28;20041;-90
2023/01/05 00:04:07;;;;;;;17.15;2.90;;;9.20;99.90;;;;;;5108395;28;20048;-90
2023/01/05 00:06:36;;;;;;;17.88;3.35;;;9.20;99.90;;;;;;5107699;28;20139;-89
2023/01/05 00:09:04;;;;;;;18.83;3.65;;;9.10;99.90;;;;;;5108867;28;20041;-89
2023/01/05 00:22:47;;;;;;;14.85;2.15;;;9.20;99.90;;;;;;5122624;28;20036;-89
2023/01/05 00:25:17;;;;;;;14.45;1.90;;;9.20;99.90;;;;;;5112266;28;20042;-90
2023/01/05 00:27:46;;;;;;;12.70;2.15;;;9.10;99.90;;;;;;5129049;28;20072;-90
2023/01/05 00:30:17;;;;;;;17.40;3.00;;;9.10;99.90;;;;;;5092015;28;20480;-90
2023/01/05 00:32:44;;;;;;;15.18;2.40;;;9.10;99.90;;;;;;5108692;28;20028;-90
2023/01/05 00:35:12;;;;;;;10.40;1.90;;;9.20;99.90;;;;;;5107924;28;20044;-90
2023/01/05 00:37:39;;;;;;;16.70;2.90;;;9.10;99.90;;;;;;5108007;28;20105;-90
2023/01/05 00:40:09;;;;;;;16.48;3.70;;;9.10;99.90;;;;;;5074539;28;20158;-89
2023/01/05 00:42:36;;;;;;;12.45;2.28;;;9.20;99.90;;;;;;5074844;28;20070;-89
2023/01/05 00:45:04;;;;;;;21.60;3.00;;;9.10;99.90;;;;;;5090674;28;20443;-90
2023/01/05 00:47:31;;;;;;;14.88;2.40;;;9.10;99.90;;;;;;5091098;28;20040;-90
2023/01/05 00:49:57;;;;;;;15.88;2.35;;;9.10;99.90;;;;;;5074831;28;20047;-90
2023/01/05 00:52:24;;;;;;;16.48;2.58;;;9.10;99.90;;;;;;5086878;28;20109;-90
2023/01/05 00:54:51;;;;;;;15.10;2.47;;;9.10;99.90;;;;;;5074273;28;20044;-89
2023/01/05 00:57:18;;;;;;;18.75;2.42;;;9.10;99.90;;;;;;5074183;28;20040;-90
2023/01/05 00:59:44;;;;;;;13.30;2.33;;;9.10;99.90;;;;;;5074490;28;20568;-89
2023/01/05 01:02:11;;;;;;;9.70;2.17;;;9.10;99.90;;;;;;5082779;28;20037;-90
2023/01/05 01:04:38;;;;;;;14.10;2.78;;;9.10;99.90;;;;;;5090784;28;20041;-90
2023/01/05 01:07:05;;;;;;;13.50;2.92;;;9.10;99.90;;;;;;5090148;28;20059;-89
2023/01/05 01:09:33;;;;;;;11.57;2.47;;;9.10;99.90;;;;;;5090663;28;20051;-90
2023/01/05 01:12:00;;;;;;;16.20;3.17;;;9.10;99.90;;;;;;5090800;28;20048;-90
2023/01/05 01:14:27;;;;;;;16.65;3.05;;;9.10;99.90;;;;;;5066033;28;20094;-90
2023/01/05 01:16:54;;;;;;;14.30;2.95;;;9.10;99.90;;;;;;5073939;28;20044;-90
2023/01/05 01:19:23;;;;;;;14.90;2.63;;;9.10;99.90;;;;;;5072938;28;20094;-90
2023/01/05 01:21:50;;;;;;;18.77;3.03;;;9.10;99.90;;;;;;5094817;28;20058;-90
2023/01/05 01:24:22;;;;;;;19.20;3.70;;;9.10;99.90;;;;;;5093827;28;20122;-89
2023/01/05 01:26:49;;;;;;;16.45;3.10;;;9.00;99.90;;;;;;5110748;28;20035;-89
2023/01/05 01:29:17;;;;;;;21.25;3.40;;;9.10;99.90;;;;;;5127365;28;20510;-90
2023/01/05 01:31:46;;;;;;;28.25;4.30;;;9.10;99.90;;;;;;5094067;28;20047;-90
2023/01/05 01:34:13;;;;;;;17.85;3.25;;;9.10;99.90;;;;;;5093323;28;20054;-89
2023/01/05 01:36:41;;;;;;;22.98;3.67;;;9.10;99.90;;;;;;5094527;28;20559;-89
2023/01/05 01:39:08;;;;;;;21.67;3.92;;;9.10;99.90;;;;;;5110128;28;20492;-90
2023/01/05 01:41:35;;;;;;;22.88;3.85;;;9.10;99.90;;;;;;5110759;28;20074;-90
2023/01/05 01:44:22;;;;;;;19.70;3.55;;;9.10;99.90;;;;;;5110633;28;20035;-89
2023/01/05 01:46:49;;;;;;;20.55;3.05;;;9.20;99.90;;;;;;5127371;28;20043;-90
2023/01/05 01:49:15;;;;;;;24.25;4.00;;;9.20;99.90;;;;;;5093609;28;20040;-89
2023/01/05 01:51:45;;;;;;;23.83;3.55;;;9.20;99.90;;;;;;5076920;28;20040;-89
2023/01/05 01:54:16;;;;;;;17.58;3.30;;;9.20;99.90;;;;;;5097978;28;20150;-90
2023/01/05 01:56:52;;;;;;;20.83;3.55;;;9.20;99.90;;;;;;5106973;28;20146;-90
2023/01/05 01:59:19;;;;;;;21.88;3.53;;;9.20;99.90;;;;;;5089858;28;20496;-89
2023/01/05 02:01:49;;;;;;;24.75;4.10;;;9.20;99.90;;;;;;5073852;28;20083;-90
2023/01/05 02:04:18;;;;;;;21.63;3.13;;;9.20;99.90;;;;;;5099161;28;20040;-89
2023/01/05 02:06:45;;;;;;;18.77;3.58;;;9.20;99.90;;;;;;5098092;28;20052;-90
2023/01/05 02:09:13;;;;;;;20.48;3.05;;;9.20;99.90;;;;;;5091027;28;20054;-89
2023/01/05 02:11:49;;;;;;;25.67;3.70;;;9.20;99.90;;;;;;5083512;28;20048;-90
2023/01/05 02:14:39;;;;;;;17.48;2.78;;;9.20;99.90;;;;;;5102935;28;20575;-89
2023/01/05 02:17:31;;;;;;;17.08;2.55;;;9.30;99.90;;;;;;5074124;28;20055;-89
2023/01/05 02:20:26;;;;;;;15.48;2.83;;;9.20;99.90;;;;;;5110025;28;20065;-90
2023/01/05 02:23:11;;;;;;;19.23;2.93;;;9.20;99.90;;;;;;5124574;28;20507;-90
2023/01/05 02:25:55;;;;;;;24.02;3.28;;;9.20;99.90;;;;;;5094722;28;20102;-89
2023/01/05 02:28:42;;;;;;;20.55;3.45;;;9.20;99.90;;;;;;5089443;28;20064;-89
2023/01/05 02:31:17;;;;;;;15.95;2.70;;;9.20;99.90;;;;;;5069295;28;20455;-89
2023/01/05 02:34:06;;;;;;;18.30;3.07;;;9.20;99.90;;;;;;5093846;28;20051;-89
2023/01/05 02:36:49;;;;;;;12.88;2.70;;;9.20;99.90;;;;;;5112268;28;20044;-89
2023/01/05 02:39:23;;;;;;;14.98;2.60;;;9.20;99.90;;;;;;5113258;28;20040;-88
2023/01/05 02:42:01;;;;;;;18.55;3.28;;;9.10;99.90;;;;;;5130484;28;20039;-89
2023/01/05 02:44:31;;;;;;;19.30;3.47;;;9.10;99.90;;;;;;5113452;28;20549;-88
2023/01/05 02:47:27;;;;;;;19.63;3.95;;;9.20;99.90;;;;;;5112682;28;20500;-88
2023/01/05 02:49:58;;;;;;;15.40;2.63;;;9.10;99.90;;;;;;5113507;28;20093;-88
2023/01/05 02:52:26;;;;;;;20.00;2.92;;;9.20;99.90;;;;;;5113302;28;20373;-89
2023/01/05 02:55:06;;;;;;;16.80;2.75;;;9.20;99.90;;;;;;5097055;28;20043;-89
2023/01/05 02:57:49;;;;;;;19.73;3.35;;;9.20;99.90;;;;;;5092825;28;20048;-89
2023/01/05 03:00:22;;;;;;;19.00;3.15;;;9.20;99.90;;;;;;5092774;28;20037;-85
2023/01/05 03:02:55;;;;;;;16.60;2.60;;;9.20;99.90;;;;;;5092791;28;20527;-89
2023/01/05 03:05:35;;;;;;;13.13;3.05;;;9.20;99.90;;;;;;5092799;28;20036;-89
2023/01/05 03:08:09;;;;;;;18.35;3.28;;;9.20;99.90;;;;;;5109564;28;20080;-89
2023/01/05 03:13:40;;;;;;;17.75;2.97;;;9.20;99.90;;;;;;5109356;28;20095;-88
2023/01/05 03:16:07;;;;;;;;;;;9.20;99.90;;;;;;5112040;28;20044;-89
2023/01/05 03:19:34;;;;;;;16.02;3.22;;;9.20;99.90;;;;;;5112284;28;20002;-89
2023/01/05 03:21:27;;;;;;;13.70;2.38;;;9.20;99.90;;;;;;5115713;28;20109;-89
2023/01/05 03:35:32;;;;;;;22.70;3.25;;;9.20;99.90;;;;;;5129821;28;20511;-89
2023/01/05 03:38:19;;;;;;;18.35;3.08;;;9.30;99.90;;;;;;5100920;28;20416;-88
2023/01/05 03:40:51;;;;;;;22.50;2.92;;;9.30;99.90;;;;;;5108864;28;20754;-88
2023/01/05 03:43:18;;;;;;;16.58;3.15;;;9.20;99.90;;;;;;5108957;28;20062;-89
2023/01/05 03:45:51;;;;;;;20.65;3.90;;;9.30;99.90;;;;;;5108721;28;20044;-89
2023/01/05 03:48:19;;;;;;;16.77;3.33;;;9.60;99.90;;;;;;5100464;28;20416;-89
2023/01/05 03:50:46;;;;;;;20.67;3.53;;;9.30;99.90;;;;;;5079345;28;20090;-88
2023/01/05 03:53:13;;;;;;;21.63;3.60;;;9.30;99.90;;;;;;5112100;28;20044;-89
2023/01/05 03:55:40;;;;;;;19.10;3.28;;;9.20;99.90;;;;;;5095156;28;20052;-89
2023/01/05 03:58:07;;;;;;;22.25;4.07;;;9.20;99.90;;;;;;5111892;28;20044;-89
2023/01/05 04:00:34;;;;;;;17.60;2.67;;;9.30;99.90;;;;;;5120417;28;20036;-88
2023/01/05 04:03:01;;;;;;;19.95;3.60;;;9.20;99.90;;;;;;5108760;28;20044;-89
2023/01/05 04:05:28;;;;;;;19.67;3.53;;;9.20;99.90;;;;;;5075116;28;20041;-88
2023/01/05 04:07:54;;;;;;;20.95;3.25;;;9.20;99.90;;;;;;5075011;28;20080;-89
2023/01/05 04:10:21;;;;;;;22.73;3.58;;;9.20;99.90;;;;;;5075621;28;20544;-89
2023/01/05 04:12:48;;;;;;;19.48;3.38;;;9.20;99.90;;;;;;5078268;28;20074;-89
2023/01/05 04:15:15;;;;;;;22.10;3.35;;;9.20;99.90;;;;;;5075020;28;20032;-89
2023/01/05 04:17:41;;;;;;;18.88;3.40;;;9.20;99.90;;;;;;5074327;28;20047;-89
2023/01/05 04:20:09;;;;;;;20.38;3.55;;;9.10;99.90;;;;;;5094828;28;20127;-89
2023/01/05 04:22:35;;;;;;;20.27;3.72;;;9.10;99.90;;;;;;5094865;28;20130;-89
2023/01/05 04:25:02;;;;;;;14.88;2.72;;;9.10;99.90;;;;;;5110949;28;20098;-88
2023/01/05 04:27:29;;;;;;;21.13;3.60;;;9.20;99.90;;;;;;5094933;28;20102;-88
2023/01/05 04:29:56;;;;;;;21.77;4.10;;;9.20;99.90;;;;;;5099644;28;20082;-88
2023/01/05 04:32:22;;;;;;;20.80;3.25;;;9.20;99.90;;;;;;5074684;28;20047;-89
2023/01/05 04:34:49;;;;;;;23.73;3.42;;;9.20;99.90;;;;;;5074598;28;20040;-88
2023/01/05 04:37:16;;;;;;;13.10;2.35;;;9.20;99.90;;;;;;5091272;28;20052;-89
2023/01/05 04:39:42;;;;;;;22.90;3.60;;;9.20;99.90;;;;;;5074333;28;20040;-88
2023/01/05 04:42:09;;;;;;;22.48;3.20;;;9.20;99.90;;;;;;5074949;28;20086;-89
2023/01/05 04:44:36;;;;;;;19.02;3.25;;;9.20;99.90;;;;;;5074488;28;20032;-88
2023/01/05 04:47:03;;;;;;;17.58;3.10;;;9.20;99.90;;;;;;5091096;28;20036;-89
2023/01/05 04:49:29;;;;;;;21.98;3.17;;;9.20;99.90;;;;;;5074644;28;20087;-89
2023/01/05 04:51:56;;;;;;;21.77;3.10;;;9.20;99.90;;;;;;5074151;28;20390;-88
2023/01/05 04:54:23;;;;;;;22.85;2.92;;;9.20;99.90;;;;;;5074380;28;20087;-90
2023/01/05 04:56:49;;;;;;;23.92;3.83;;;9.20;99.90;;;;;;5074414;28;20067;-89
2023/01/05 04:59:16;;;;;;;16.05;3.35;;;9.20;99.90;;;;;;5090712;28;20416;-89
2023/01/05 05:01:43;;;;;;;16.15;3.10;;;9.20;99.90;;;;;;5090907;28;20100;-89
2023/01/05 05:04:10;;;;;;;18.38;3.40;;;9.20;99.90;;;;;;5107411;28;20276;-89
2023/01/05 05:06:36;;;;;;;20.40;3.05;;;9.30;99.90;;;;;;5090565;28;20497;-87
2023/01/05 05:09:03;;;;;;;18.08;2.60;;;9.30;99.90;;;;;;5090983;28;20546;-88
2023/01/05 05:11:30;;;;;;;16.40;2.45;;;9.20;99.90;;;;;;5090918;28;20067;-89
2023/01/05 05:13:57;;;;;;;19.10;2.97;;;9.30;99.90;;;;;;5122587;28;20090;-88
2023/01/05 05:16:23;;;;;;;19.70;3.60;;;9.30;99.90;;;;;;5110575;28;20488;-89
2023/01/05 05:18:50;;;;;;;17.80;4.05;;;9.30;99.90;;;;;;5093882;28;20055;-89
2023/01/05 05:21:17;;;;;;;27.85;3.60;;;9.30;99.90;;;;;;5077329;28;20087;-89
2023/01/05 05:23:44;;;;;;;13.55;2.80;;;9.30;99.90;;;;;;5077528;28;20392;-89
2023/01/05 05:26:11;;;;;;;17.73;3.17;;;9.30;99.90;;;;;;5077834;28;20043;-88
2023/01/05 05:28:38;;;;;;;25.20;4.10;;;9.40;99.90;;;;;;5077709;28;20044;-88
2023/01/05 05:31:04;;;;;;;15.45;2.85;;;9.40;99.90;;;;;;5093870;28;20050;-88
2023/01/05 05:33:31;;;;;;;22.50;3.65;;;9.40;99.90;;;;;;5093920;28;20082;-89
2023/01/05 05:35:58;;;;;;;19.05;2.65;;;9.40;99.90;;;;;;5073658;28;20044;-89
2023/01/05 05:38:24;;;;;;;16.10;2.72;;;9.40;99.90;;;;;;5090676;28;20481;-88
2023/01/05 05:40:51;;;;;;;19.15;3.10;;;9.30;99.90;;;;;;5106481;28;20059;-89
2023/01/05 05:43:18;;;;;;;17.25;3.20;;;9.40;99.90;;;;;;5092041;28;20500;-89
2023/01/05 05:45:44;;;;;;;20.17;4.07;;;9.40;99.90;;;;;;5077142;28;20032;-89
2023/01/05 05:48:11;;;;;;;11.95;2.78;;;9.30;99.90;;;;;;5110244;28;20063;-89
2023/01/05 05:50:38;;;;;;;14.13;2.65;;;9.40;99.90;;;;;;5110586;28;20186;-89
2023/01/05 05:53:05;;;;;;;18.05;3.25;;;9.30;99.90;;;;;;5093794;28;20051;-89
2023/01/05 05:55:33;;;;;;;14.13;2.72;;;9.30;99.90;;;;;;5093903;28;20044;-89
2023/01/05 05:57:59;;;;;;;15.70;3.33;;;9.30;99.90;;;;;;5093531;28;20044;-89
2023/01/05 06:00:26;;;;;;;19.85;2.60;;;9.40;99.90;;;;;;5076854;28;20047;-88
2023/01/05 06:02:53;;;;;;;16.70;3.17;;;9.40;99.90;;;;;;5076915;28;20036;-89
2023/01/05 06:05:20;;;;;;;19.45;2.67;;;9.30;99.90;;;;;;5074915;28;20041;-88
2023/01/05 06:07:46;;;;;;;22.42;3.35;;;9.30;99.90;;;;;;5093604;28;20059;-89
2023/01/05 06:10:13;;;;;;;13.60;2.95;;;9.40;99.90;;;;;;5077464;28;20109;-89
2023/01/05 06:12:40;;;;;;;17.65;2.53;;;9.30;99.90;;;;;;5093832;28;20443;-89
2023/01/05 06:15:07;;;;;;;13.93;2.90;;;9.30;99.90;;;;;;5077354;28;20444;-88
2023/01/05 06:17:34;;;;;;;16.88;3.00;;;9.30;99.90;;;;;;5094138;28;20037;-89
2023/01/05 06:20:01;;;;;;;14.52;2.67;;;9.30;99.90;;;;;;5077211;28;20047;-89
2023/01/05 06:22:27;;;;;;;19.50;3.08;;;9.30;99.90;;;;;;5077635;28;20125;-88
2023/01/05 06:24:54;;;;;;;16.63;3.15;;;9.30;99.90;;;;;;5079075;28;20032;-88
2023/01/05 06:27:21;;;;;;;16.48;3.10;;;9.30;99.90;;;;;;5093807;28;20036;-88
2023/01/05 06:29:47;;;;;;;22.55;3.42;;;9.30;99.90;;;;;;5093774;28;20052;-89
2023/01/05 06:32:14;;;;;;;19.58;2.90;;;9.30;99.90;;;;;;5060738;28;20044;-89
2023/01/05 06:34:41;;;;;;;18.08;3.17;;;9.30;99.90;;;;;;5093464;28;20041;-89
2023/01/05 06:37:07;;;;;;;19.88;3.15;;;9.30;99.90;;;;;;5060500;28;20396;-89
2023/01/05 06:39:34;;;;;;;20.05;2.88;;;9.20;99.90;;;;;;5076690;28;20052;-89
2023/01/05 06:42:01;;;;;;;18.25;3.10;;;9.30;99.90;;;;;;5059731;28;20072;-89
2023/01/05 06:44:27;;;;;;;19.38;3.35;;;9.30;99.90;;;;;;5093432;28;20036;-88
2023/01/05 06:46:54;;;;;;;22.45;2.95;;;9.30;99.90;;;;;;5060132;28;20086;-88
2023/01/05 06:49:21;;;;;;;14.00;2.25;;;9.20;99.90;;;;;;5076823;28;20131;-89
2023/01/05 06:51:47;;;;;;;19.25;3.10;;;9.20;99.90;;;;;;5076583;28;20036;-88
2023/01/05 06:54:14;;;;;;;15.70;3.08;;;9.20;99.90;;;;;;5060298;28;20131;-88
2023/01/05 06:56:41;;;;;;;14.82;2.42;;;9.20;99.90;;;;;;5079556;28;20048;-89
2023/01/05 06:59:09;;;;;;;17.45;2.60;;;9.20;99.90;;;;;;5096432;28;20063;-89
2023/01/05 07:01:36;;;;;;;18.73;2.95;;;9.10;99.90;;;;;;5110524;28;20495;-89
2023/01/05 07:04:03;;;;;;;13.57;2.90;;;9.20;99.90;;;;;;5091985;28;20099;-88
2023/01/05 07:06:30;;;;;;;12.23;2.60;;;9.10;99.90;;;;;;5104384;28;20099;-88
2023/01/05 07:08:56;;;;;;;15.07;3.03;;;9.10;99.90;;;;;;5138040;28;20123;-88
2023/01/05 07:11:23;;;;;;;17.98;3.13;;;9.20;99.90;;;;;;5112837;28;20575;-87
2023/01/05 07:13:50;;;;;;;14.27;2.92;;;9.10;99.90;;;;;;5133426;28;20150;-88
2023/01/05 07:16:17;;;;;;;17.92;3.17;;;9.10;99.90;;;;;;5115465;28;20036;-88
2023/01/05 07:18:44;;;;;;;17.70;3.15;;;9.10;99.90;;;;;;5095112;28;20497;-88
2023/01/05 07:21:11;;;;;;;30.33;3.83;;;9.20;99.90;;;;;;5092446;28;20041;-88
2023/01/05 07:23:38;;;;;;;18.52;3.30;;;9.10;99.90;;;;;;5106846;28;20035;-88
2023/01/05 07:26:06;;;;;;;18.77;2.85;;;9.10;99.90;;;;;;5083009;28;20050;-88
2023/01/05 07:28:33;;;;;;;19.00;3.45;;;9.10;99.90;;;;;;5098206;28;20036;-88
2023/01/05 07:31:00;;;;;;;16.80;2.95;;;9.10;99.90;;;;;;5103179;28;20105;-88
2023/01/05 07:33:27;;;;;;;18.52;2.75;;;9.10;99.90;;;;;;5077470;28;20041;-88
2023/01/05 07:35:53;;;;;;;15.13;2.90;;;9.10;99.90;;;;;;5092327;28;20037;-88
2023/01/05 07:38:20;;;;;;;16.20;2.60;;;9.00;99.90;;;;;;5065622;28;20055;-88
2023/01/05 07:40:47;;;;;;;24.90;2.78;;;9.00;99.90;;;;;;5091768;28;20075;-87
2023/01/05 07:43:15;;;;;;;23.20;3.22;;;9.00;99.90;;;;;;5093349;28;20805;-87
2023/01/05 07:45:42;;;;;;;20.15;3.72;;;9.00;99.90;;;;;;5112511;28;20066;-87
2023/01/05 07:48:09;;;;;;;18.40;3.60;;;9.00;99.90;;;;;;5111047;28;20408;-87
2023/01/05 07:50:36;;;;;;;18.25;3.22;;;9.00;99.90;;;;;;5111875;28;20035;-86
2023/01/05 07:53:02;;;;;;;19.98;3.45;;;9.00;99.90;;;;;;5097595;28;20110;-87
2023/01/05 07:55:29;;;;;;;19.67;3.22;;;9.10;99.90;;;;;;5093379;28;20075;-88
2023/01/05 07:57:56;;;;;;;23.80;4.03;;;9.10;99.90;;;;;;5078413;28;20040;-87
2023/01/05 08:00:22;;;;;;;17.83;2.83;;;9.10;99.90;;;;;;5094756;28;20039;-87
2023/01/05 08:02:49;;;;;;;16.50;3.17;;;9.10;99.90;;;;;;5083908;28;20066;-87
2023/01/05 08:05:16;;;;;;;16.73;3.63;;;9.10;99.90;;;;;;5093034;28;20115;-87
2023/01/05 08:07:42;;;;;;;14.38;2.70;;;9.10;99.90;;;;;;5115877;28;20048;-87
2023/01/05 08:10:27;;;;;;;17.90;2.58;;;9.10;99.90;;;;;;5100266;28;20101;-86
2023/01/05 08:15:39;;;;;;;18.37;2.60;;;9.20;99.90;;;;;;5093845;28;20475;-87
2023/01/05 08:18:06;;;;;;;14.50;3.03;;;9.10;99.90;;;;;;5107347;28;20076;-86
2023/01/05 08:20:32;;;;;;;14.20;2.50;;;9.10;99.90;;;;;;5081339;28;20036;-79
2023/01/05 08:22:59;;;;;;;12.25;2.08;;;9.20;99.90;;;;;;5099631;28;20027;-82
2023/01/05 08:25:26;;;;;;;15.60;3.08;;;9.20;99.90;;;;;;5093527;28;20046;-85
2023/01/05 08:27:53;;;;;;;19.50;3.63;;;9.20;99.90;;;;;;5076536;28;20039;-85
2023/01/05 08:30:20;;;;;;;14.20;2.20;;;9.10;99.90;;;;;;5067964;28;20595;-85
2023/01/05 08:32:47;;;;;;;15.45;2.47;;;9.10;99.90;;;;;;5090226;28;20044;-84
2023/01/05 08:35:13;;;;;;;15.60;2.50;;;9.20;99.90;;;;;;5089893;28;20050;-85
2023/01/05 08:37:44;;;;;;;13.75;2.30;;;9.10;99.90;;;;;;5073558;28;20045;-85
2023/01/05 08:40:11;;;;;;;15.15;2.30;;;9.20;99.90;;;;;;5074982;28;20032;-85
2023/01/05 08:42:38;;;;;;;12.95;2.47;;;9.20;99.90;;;;;;5093822;28;20500;-85
2023/01/05 08:45:05;;;;;;;11.95;1.75;;;9.10;99.90;;;;;;5093056;28;20077;-84
2023/01/05 08:47:32;;;;;;;11.82;2.03;;;9.20;99.90;;;;;;5109796;28;20036;-85
2023/01/05 08:49:58;;;;;;;16.52;2.50;;;9.20;99.90;;;;;;5126566;28;20166;-85
2023/01/05 08:52:25;;;;;;;16.45;3.08;;;9.20;99.90;;;;;;5108648;28;20047;-85
2023/01/05 08:54:52;;;;;;;14.63;2.95;;;9.20;99.90;;;;;;5110144;28;20040;-85
2023/01/05 08:57:18;;;;;;;15.35;3.53;;;9.20;99.90;;;;;;5076700;28;20043;-85
2023/01/05 08:59:45;;;;;;;11.60;2.58;;;9.20;99.90;;;;;;5110360;28;20073;-85
2023/01/05 09:02:12;;;;;;;13.35;2.22;;;9.20;99.90;;;;;;5077854;28;20478;-85
2023/01/05 09:04:38;;;;;;;17.45;3.08;;;9.20;99.90;;;;;;5092982;28;20042;-85
2023/01/05 09:07:06;;;;;;;19.85;2.60;;;9.20;99.90;;;;;;5109391;28;20050;-85
2023/01/05 09:09:32;;;;;;;14.82;2.47;;;9.10;99.90;;;;;;5076738;28;20770;-85
2023/01/05 09:11:59;;;;;;;11.93;1.67;;;9.10;99.90;;;;;;5126352;28;20044;-85
2023/01/05 09:14:26;;;;;;;8.15;1.48;;;9.00;99.90;;;;;;5077159;28;20083;-85
2023/01/05 09:16:52;;;;;;;10.30;1.60;;;8.90;99.90;;;;;;5073487;28;20043;-85
2023/01/05 09:19:19;;;;;;;12.05;1.92;;;8.90;99.90;;;;;;5089255;28;20033;-84
2023/01/05 09:21:46;;;;;;;13.07;1.90;;;8.90;99.90;;;;;;5072831;28;20040;-84
2023/01/05 09:24:13;;;;;;;11.48;1.48;;;8.90;99.90;;;;;;5091927;28;20025;-84
2023/01/05 09:26:41;;;;;;;12.27;1.92;;;8.80;99.90;;;;;;5092879;28;20047;-85
2023/01/05 09:29:09;;;;;;;6.68;1.80;;;8.90;99.90;;;;;;5109571;28;20516;-85
2023/01/05 09:31:36;;;;;;;14.20;2.15;;;8.80;99.90;;;;;;5088892;28;20080;-85
2023/01/05 09:34:03;;;;;;;12.32;1.80;;;8.80;99.90;;;;;;5127012;28;20067;-85
2023/01/05 09:36:31;;;;;;;15.48;2.45;;;8.80;99.90;;;;;;5109197;28;20040;-84
2023/01/05 09:38:57;;;;;;;7.35;1.52;;;8.80;99.90;;;;;;5089650;28;20048;-84
2023/01/05 09:41:32;;;;;;;12.32;2.10;;;8.80;99.90;;;;;;5072786;28;20527;-85
2023/01/05 09:44:06;;;;;;;11.70;1.88;;;8.80;99.90;;;;;;5092799;28;20495;-85
2023/01/05 09:46:38;;;;;;;13.82;2.50;;;8.80;99.90;;;;;;5108486;28;20503;-85
2023/01/05 09:49:11;;;;;;;12.32;2.13;;;8.80;99.90;;;;;;5126232;28;20043;-85
2023/01/05 09:51:38;;;;;;;15.50;2.83;;;8.80;99.90;;;;;;5093592;28;20079;-84
2023/01/05 09:54:05;;;;;;;10.90;1.60;;;8.80;99.90;;;;;;5076324;28;20132;-85
2023/01/05 09:56:38;;;;;;;11.77;2.40;;;8.80;99.90;;;;;;5075880;28;20047;-85
2023/01/05 09:59:18;;;;;;;14.90;2.65;;;8.80;99.90;;;;;;5109119;28;20485;-85
2023/01/05 10:01:47;;;;;;;13.32;2.13;;;8.80;99.90;;;;;;5109509;28;20036;-85
2023/01/05 10:04:25;;;;;;;17.60;2.45;;;8.90;99.90;;;;;;5109106;28;20036;-84
2023/01/05 10:07:25;;;;;;;12.43;1.70;;;8.90;99.90;;;;;;5092353;28;20097;-85
2023/01/05 10:09:53;;;;;;;16.95;2.20;;;8.90;99.90;;;;;;5102773;28;20527;-85
2023/01/05 10:15:26;;;;;;;15.18;2.00;;;8.90;99.90;;;;;;5105659;28;20049;-85
2023/01/05 10:17:53;;;;;;;10.88;2.13;;;9.00;99.90;;;;;;5072422;28;20044;-83
2023/01/05 10:20:29;;;;;;;14.63;1.83;;;9.00;99.90;;;;;;5081882;28;20107;-85
2023/01/05 10:23:02;;;;;;;13.20;1.88;;;9.00;99.90;;;;;;5126012;28;20040;-85
2023/01/05 10:25:38;;;;;;;12.48;2.10;;;9.00;99.90;;;;;;5125716;28;20048;-85
2023/01/05 10:28:08;;;;;;;14.70;2.50;;;9.10;99.90;;;;;;5125822;28;20040;-85
2023/01/05 10:30:49;;;;;;;12.93;1.85;;;9.00;99.90;;;;;;5125639;28;20040;-85
2023/01/05 10:33:24;;;;;;;9.98;2.28;;;9.10;99.90;;;;;;5109153;28;20040;-85
2023/01/05 10:36:01;;;;;;;12.45;1.85;;;9.10;99.90;;;;;;5125800;28;20465;-85
2023/01/05 10:38:28;;;;;;;14.50;1.67;;;9.00;99.90;;;;;;5108777;28;20044;-85
2023/01/05 10:41:03;;;;;;;11.32;1.83;;;9.10;99.90;;;;;;5125493;28;20085;-85
2023/01/05 10:43:45;;;;;;;12.65;2.50;;;9.10;99.90;;;;;;5108795;28;20511;-85
2023/01/05 10:46:14;;;;;;;11.10;1.73;;;9.20;99.90;;;;;;5108929;28;20515;-85
2023/01/05 10:48:41;;;;;;;8.90;1.60;;;9.20;99.90;;;;;;5108568;28;20480;-85
2023/01/05 10:51:08;;;;;;;8.18;1.58;;;9.20;99.90;;;;;;5073231;28;20040;-85
2023/01/05 10:53:39;;;;;;;10.75;2.13;;;9.20;99.90;;;;;;5092076;28;20044;-85
2023/01/05 10:56:15;;;;;;;7.00;1.48;;;9.20;99.90;;;;;;5109320;28;20047;-85
2023/01/05 10:58:44;;;;;;;9.52;1.60;;;9.10;99.90;;;;;;5108698;28;20821;-85
2023/01/05 11:01:27;;;;;;;12.05;1.83;;;9.10;99.90;;;;;;5092541;28;20036;-85
2023/01/05 11:04:03;;;;;;;7.80;1.55;;;9.10;99.90;;;;;;5109242;28;20036;-85
2023/01/05 11:06:33;;;;;;;7.57;1.50;;;9.10;99.90;;;;;;5108232;28;20524;-85
2023/01/05 11:09:25;;;;;;;8.50;1.40;;;9.10;99.90;;;;;;5108619;28;20048;-85
2023/01/05 11:11:57;;;;;;;10.90;1.60;;;9.20;99.90;;;;;;5091623;28;20044;-84
2023/01/05 11:14:26;;;;;;;4.90;1.33;;;9.20;99.90;;;;;;5095526;28;20040;-84
2023/01/05 11:16:59;;;;;;;6.95;1.23;;;9.20;99.90;;;;;;5095961;28;20412;-85
2023/01/05 11:19:40;;;;;;;8.90;1.30;;;9.20;99.90;;;;;;5111329;28;20043;-83
2023/01/05 11:22:34;;;;;;;9.18;1.88;;;9.20;99.90;;;;;;5112080;28;20032;-85
2023/01/05 11:25:26;;;;;;;9.48;1.30;;;9.20;99.90;;;;;;5103073;28;20048;-84
2023/01/05 11:28:05;;;;;;;11.82;1.60;;;9.20;99.90;;;;;;5112305;28;20123;-84
2023/01/05 11:30:32;;;;;;;10.40;1.40;;;9.20;99.90;;;;;;5105774;28;20028;-84
2023/01/05 11:33:00;;;;;;;8.68;1.58;;;9.30;99.90;;;;;;5091307;28;20516;-85
2023/01/05 11:35:32;;;;;;;11.50;1.60;;;9.30;99.90;;;;;;5111495;28;20040;-84
2023/01/05 11:37:59;;;;;;;9.98;1.88;;;9.30;99.90;;;;;;5111607;28;20458;-85
2023/01/05 11:40:32;;;;;;;7.88;1.80;;;9.30;99.90;;;;;;5109399;28;20070;-83
2023/01/05 11:43:00;;;;;;;9.60;1.80;;;9.30;99.90;;;;;;5111437;28;20040;-84
2023/01/05 11:45:49;;;;;;;13.98;1.95;;;9.40;99.90;;;;;;5110924;28;20036;-83
2023/01/05 11:48:30;;;;;;;13.13;1.88;;;9.40;99.90;;;;;;5128216;28;20040;-85
2023/01/05 11:50:58;;;;;;;9.85;1.67;;;9.40;99.90;;;;;;5106299;28;20086;-84
2023/01/05 11:53:30;;;;;;;8.65;1.50;;;9.40;99.90;;;;;;5076753;28;20032;-84
2023/01/05 11:56:06;;;;;;;8.38;1.55;;;9.40;99.90;;;;;;5107833;28;20378;-84
2023/01/05 11:58:44;;;;;;;12.02;1.95;;;9.40;99.90;;;;;;5107326;28;20044;-84
2023/01/05 12:01:36;;;;;;;9.10;1.30;;;9.40;99.90;;;;;;5107413;28;20098;-84
2023/01/05 12:04:26;;;;;;;13.48;2.03;;;9.40;99.90;;;;;;5122390;28;20036;-84
2023/01/05 12:06:53;;;;;;;8.50;1.60;;;9.40;99.90;;;;;;5127162;28;20173;-84
2023/01/05 12:09:27;;;;;;;16.10;2.20;;;9.40;99.90;;;;;;5110563;28;20071;-84
2023/01/05 12:12:38;;;;;;;12.80;2.50;;;9.50;99.90;;;;;;5111029;28;20048;-85
2023/01/05 12:15:35;;;;;;;10.75;2.05;;;9.50;99.90;;;;;;5046363;28;20048;-84
2023/01/05 12:18:49;;;;;;;13.48;1.95;;;9.50;99.90;;;;;;5110722;28;20036;-84
2023/01/05 12:21:20;;;;;;;13.00;2.30;;;9.50;99.90;;;;;;5093378;28;20530;-85
2023/01/05 12:24:23;;;;;;;13.00;1.70;;;9.50;99.90;;;;;;5127742;28;20047;-85
2023/01/05 12:27:11;;;;;;;13.77;1.60;;;9.50;99.90;;;;;;5110419;28;20040;-85
2023/01/05 12:30:08;;;;;;;15.85;2.00;;;9.40;99.90;;;;;;5126804;28;20055;-84
2023/01/05 12:32:34;;;;;;;11.52;2.08;;;9.40;99.90;;;;;;5110162;28;20062;-84
2023/01/05 12:35:18;;;;;;;12.25;2.10;;;9.40;99.90;;;;;;5110274;28;20043;-84
2023/01/05 12:38:03;;;;;;;9.48;2.03;;;9.40;99.90;;;;;;5126725;28;20052;-84
2023/01/05 12:41:18;;;;;;;9.70;1.70;;;9.40;99.90;;;;;;5090251;28;20044;-85
2023/01/05 12:44:09;;;;;;;12.07;2.20;;;9.40;99.90;;;;;;5106204;28;20454;-84
2023/01/05 12:46:51;;;;;;;12.77;1.95;;;9.40;99.90;;;;;;5089681;28;20048;-84
2023/01/05 12:49:24;;;;;;;11.25;1.88;;;9.50;99.90;;;;;;5100085;28;20097;-84
2023/01/05 12:52:07;;;;;;;17.27;2.20;;;9.50;99.90;;;;;;5110018;28;20048;-84
2023/01/05 12:55:18;;;;;;;9.95;1.52;;;9.50;99.90;;;;;;5127158;28;20044;-84
2023/01/05 12:57:58;;;;;;;13.55;1.90;;;9.50;99.90;;;;;;5084512;28;20416;-84
2023/01/05 13:00:30;;;;;;;11.30;1.27;;;9.50;99.90;;;;;;5126668;28;20043;-85
2023/01/05 13:03:00;;;;;;;8.95;1.80;;;9.50;99.90;;;;;;5126280;28;20108;-84
2023/01/05 13:05:30;;;;;;;10.85;1.90;;;9.60;99.90;;;;;;5109439;28;20101;-85
2023/01/05 13:08:19;;;;;;;9.35;1.80;;;9.60;99.90;;;;;;5109265;28;20052;-84
2023/01/05 13:11:08;;;;;;;11.20;1.75;;;9.60;99.90;;;;;;5111252;28;20101;-84
2023/01/05 13:13:45;;;;;;;11.50;1.80;;;9.60;99.90;;;;;;5089095;28;20071;-84
2023/01/05 13:16:18;;;;;;;9.68;1.70;;;9.60;99.90;;;;;;5089738;28;20538;-85
2023/01/05 13:19:19;;;;;;;10.68;1.55;;;9.60;99.90;;;;;;5093353;28;20044;-84
2023/01/05 13:21:47;;;;;;;9.05;1.95;;;9.60;99.90;;;;;;5112175;28;20504;-84
2023/01/05 13:24:34;;;;;;;9.35;1.80;;;9.60;99.90;;;;;;5126398;28;20040;-84
2023/01/05 13:27:02;;;;;;;7.93;1.73;;;9.60;99.90;;;;;;5109387;28;20512;-85
2023/01/05 13:29:40;;;;;;;13.18;2.00;;;9.50;99.90;;;;;;5109909;28;20047;-84
2023/01/05 13:32:24;;;;;;;11.18;2.22;;;9.60;99.90;;;;;;5108670;28;20048;-85
2023/01/05 13:35:15;;;;;;;12.43;1.95;;;9.60;99.90;;;;;;5126364;28;20776;-84
2023/01/05 13:38:03;;;;;;;13.85;1.80;;;9.60;99.90;;;;;;5108697;28;20043;-84
2023/01/05 13:40:59;;;;;;;12.63;2.45;;;9.50;99.90;;;;;;5106108;28;20036;-85
2023/01/05 13:43:42;;;;;;;7.75;1.73;;;9.50;99.90;;;;;;5109204;28;20404;-83